createdAt,value
2018-10-03T04:00:24.255Z,80.50
2018-10-03T04:00:56.968Z,80.30
2018-10-03T04:01:29.621Z,80.70
2018-10-03T04:02:02.241Z,80.70
2018-10-03T04:02:34.886Z,80.60
2018-10-03T04:03:07.488Z,80.00
2018-10-03T04:03:40.098Z,80.00
2018-10-03T04:04:12.733Z,79.80
2018-10-03T04:04:45.361Z,79.60
2018-10-03T04:05:17.967Z,79.80
2018-10-03T04:05:50.613Z,79.90
2018-10-03T04:06:23.213Z,79.90
2018-10-03T04:06:55.809Z,79.60
2018-10-03T04:07:28.444Z,79.70
2018-10-03T04:08:01.123Z,79.80
2018-10-03T04:08:33.724Z,80.20
2018-10-03T04:09:06.588Z,80.20
2018-10-03T04:09:39.177Z,80.30
2018-10-03T04:10:11.774Z,80.10
2018-10-03T04:10:44.403Z,80.30
2018-10-03T04:11:17.062Z,80.50
2018-10-03T04:11:49.667Z,80.70
2018-10-03T04:12:22.400Z,80.50
2018-10-03T04:12:55.169Z,79.70
2018-10-03T04:13:27.938Z,79.60
2018-10-03T04:14:00.683Z,79.50
2018-10-03T04:14:33.325Z,78.90
2018-10-03T04:15:05.987Z,79.00
2018-10-03T04:15:38.968Z,79.40
2018-10-03T04:16:11.587Z,79.40
2018-10-03T04:16:44.335Z,79.40
2018-10-03T04:17:16.980Z,79.30
2018-10-03T04:17:49.582Z,78.90
2018-10-03T04:18:22.315Z,79.10
2018-10-03T04:18:54.902Z,79.00
2018-10-03T04:19:27.509Z,79.20
2018-10-03T04:20:00.153Z,79.40
2018-10-03T04:20:32.777Z,79.00
2018-10-03T04:21:05.416Z,79.10
2018-10-03T04:21:38.823Z,79.10
2018-10-03T04:22:11.480Z,78.50
2018-10-03T04:22:44.098Z,78.20
2018-10-03T04:23:16.760Z,77.90
2018-10-03T04:23:49.385Z,78.00
2018-10-03T04:24:22.008Z,78.00
2018-10-03T04:24:54.636Z,78.30
2018-10-03T04:25:27.262Z,78.70
2018-10-03T04:25:59.955Z,78.40
2018-10-03T04:26:32.620Z,78.20
2018-10-03T04:27:05.258Z,77.90
2018-10-03T04:27:37.916Z,77.70
2018-10-03T04:28:10.547Z,77.90
2018-10-03T04:28:43.160Z,78.40
2018-10-03T04:29:15.761Z,78.10
2018-10-03T04:29:48.382Z,78.40
2018-10-03T04:30:21.013Z,78.50
2018-10-03T04:30:53.646Z,78.30
2018-10-03T04:31:26.320Z,77.60
2018-10-03T04:31:58.929Z,77.70
2018-10-03T04:32:31.522Z,77.90
2018-10-03T04:33:04.231Z,77.70
2018-10-03T04:33:36.839Z,77.80
2018-10-03T04:34:09.449Z,78.00
2018-10-03T04:34:42.139Z,78.00
2018-10-03T04:35:14.753Z,78.00
2018-10-03T04:35:47.498Z,78.10
2018-10-03T04:36:20.372Z,77.80
2018-10-03T04:36:53.040Z,77.90
2018-10-03T04:37:25.688Z,77.70
2018-10-03T04:37:58.306Z,77.80
2018-10-03T04:38:30.948Z,77.90
2018-10-03T04:39:05.280Z,77.20
2018-10-03T04:39:37.926Z,76.90
2018-10-03T04:40:10.571Z,77.10
2018-10-03T04:40:43.217Z,76.90
2018-10-03T04:41:15.870Z,76.90
2018-10-03T04:41:48.492Z,76.90
2018-10-03T04:42:21.203Z,76.40
2018-10-03T04:42:53.796Z,76.60
2018-10-03T04:43:26.396Z,76.80
2018-10-03T04:43:59.053Z,76.90
2018-10-03T04:44:31.686Z,77.80
2018-10-03T04:45:04.352Z,76.80
2018-10-03T04:45:36.966Z,76.50
2018-10-03T04:46:09.580Z,76.50
2018-10-03T04:46:42.227Z,76.50
2018-10-03T04:47:14.879Z,76.00
2018-10-03T04:47:47.492Z,76.10
2018-10-03T04:48:20.133Z,76.30
2018-10-03T04:48:52.800Z,76.30
2018-10-03T04:49:25.498Z,76.30
2018-10-03T04:49:58.097Z,75.80
2018-10-03T04:50:30.744Z,75.50
2018-10-03T04:51:03.342Z,75.40
2018-10-03T04:51:35.941Z,75.40
2018-10-03T04:52:08.595Z,75.70
2018-10-03T04:52:41.357Z,75.80
2018-10-03T04:53:13.967Z,75.70
2018-10-03T04:53:46.649Z,76.10
2018-10-03T04:54:19.257Z,76.50
2018-10-03T04:54:51.980Z,75.90
2018-10-03T04:55:24.588Z,75.40
2018-10-03T04:55:57.193Z,75.20
2018-10-03T04:56:29.805Z,75.40
2018-10-03T04:57:02.479Z,75.30
2018-10-03T04:57:35.105Z,75.90
2018-10-03T04:58:07.723Z,75.90
2018-10-03T04:58:40.348Z,76.20
2018-10-03T04:59:13.054Z,75.60
2018-10-03T04:59:45.660Z,76.10
2018-10-03T05:00:18.336Z,76.10
2018-10-03T05:00:50.993Z,75.90
2018-10-03T05:01:23.631Z,76.10
2018-10-03T05:01:56.233Z,76.30
2018-10-03T05:02:28.890Z,75.40
2018-10-03T05:03:01.507Z,75.30
2018-10-03T05:03:34.116Z,74.90
2018-10-03T05:04:06.730Z,75.00
2018-10-03T05:04:39.370Z,75.10
2018-10-03T05:05:11.980Z,74.90
2018-10-03T05:05:44.636Z,75.20
2018-10-03T05:06:17.253Z,74.90
2018-10-03T05:06:49.866Z,75.20
2018-10-03T05:07:22.468Z,75.10
2018-10-03T05:07:55.076Z,75.40
2018-10-03T05:08:27.672Z,75.60
2018-10-03T05:09:00.288Z,74.70
2018-10-03T05:09:32.905Z,74.40
2018-10-03T05:10:05.549Z,74.30
2018-10-03T05:10:38.128Z,74.70
2018-10-03T05:11:10.846Z,74.60
2018-10-03T05:11:43.428Z,74.30
2018-10-03T05:12:16.025Z,74.70
2018-10-03T05:12:48.652Z,74.60
2018-10-03T05:13:21.322Z,74.40
2018-10-03T05:13:53.961Z,74.30
2018-10-03T05:14:26.612Z,74.40
2018-10-03T05:14:59.240Z,74.60
2018-10-03T05:15:31.933Z,74.80
2018-10-03T05:16:04.576Z,74.50
2018-10-03T05:16:37.238Z,74.40
2018-10-03T05:17:09.875Z,74.20
2018-10-03T05:17:42.528Z,74.30
2018-10-03T05:18:15.167Z,73.90
2018-10-03T05:18:47.797Z,74.00
2018-10-03T05:19:20.392Z,73.90
2018-10-03T05:19:53.027Z,74.00
2018-10-03T05:20:25.670Z,73.90
2018-10-03T05:20:58.279Z,73.70
2018-10-03T05:21:30.923Z,73.80
2018-10-03T05:22:03.588Z,74.20
2018-10-03T05:22:36.226Z,73.80
2018-10-03T05:23:08.951Z,74.10
2018-10-03T05:23:41.563Z,74.30
2018-10-03T05:24:14.194Z,74.10
2018-10-03T05:24:46.784Z,74.10
2018-10-03T05:25:19.469Z,74.00
2018-10-03T05:25:52.134Z,73.80
2018-10-03T05:26:24.756Z,73.70
2018-10-03T05:26:57.365Z,73.70
2018-10-03T05:27:30.014Z,73.50
2018-10-03T05:28:02.648Z,73.50
2018-10-03T05:28:35.256Z,73.50
2018-10-03T05:29:07.894Z,73.50
2018-10-03T05:29:40.534Z,73.70
2018-10-03T05:30:13.162Z,73.80
2018-10-03T05:30:45.772Z,73.90
2018-10-03T05:31:18.414Z,73.60
2018-10-03T05:31:51.046Z,73.40
2018-10-03T05:32:23.680Z,73.20
2018-10-03T05:32:56.325Z,72.50
2018-10-03T05:33:29.508Z,73.50
2018-10-03T05:34:02.168Z,73.60
2018-10-03T05:34:34.769Z,73.80
2018-10-03T05:35:07.429Z,73.10
2018-10-03T05:35:40.068Z,73.70
2018-10-03T05:36:12.680Z,73.40
2018-10-03T05:36:45.277Z,73.30
2018-10-03T05:37:17.931Z,72.20
2018-10-03T05:37:50.715Z,73.10
2018-10-03T05:38:23.369Z,73.80
2018-10-03T05:38:55.993Z,73.60
2018-10-03T05:39:28.663Z,73.90
2018-10-03T05:40:01.268Z,73.90
2018-10-03T05:40:33.884Z,74.20
2018-10-03T05:41:06.556Z,74.70
2018-10-03T05:41:39.417Z,74.70
2018-10-03T05:42:12.040Z,74.80
2018-10-03T05:42:44.659Z,75.00
2018-10-03T05:43:17.260Z,74.50
2018-10-03T05:43:49.921Z,73.80
2018-10-03T05:44:22.541Z,73.70
2018-10-03T05:44:55.143Z,73.90
2018-10-03T05:45:27.773Z,74.20
2018-10-03T05:46:00.384Z,74.20
2018-10-03T05:46:33.004Z,74.20
2018-10-03T05:47:05.717Z,74.10
2018-10-03T05:47:38.324Z,74.10
2018-10-03T05:48:10.965Z,74.20
2018-10-03T05:48:43.644Z,73.60
2018-10-03T05:49:16.238Z,73.30
2018-10-03T05:49:48.842Z,73.40
2018-10-03T05:50:21.469Z,73.50
2018-10-03T05:50:54.161Z,73.50
2018-10-03T05:51:34.435Z,73.40
2018-10-03T05:52:11.340Z,73.80
2018-10-03T05:52:46.545Z,73.20
2018-10-03T05:53:19.252Z,73.50
2018-10-03T05:53:51.970Z,73.50
2018-10-03T05:54:24.747Z,73.60
2018-10-03T05:54:57.473Z,73.60
2018-10-03T05:55:30.153Z,72.80
2018-10-03T05:56:02.918Z,73.50
2018-10-03T05:56:35.514Z,73.60
2018-10-03T05:57:08.228Z,73.60
2018-10-03T05:57:41.021Z,73.60
2018-10-03T05:58:13.656Z,73.60
2018-10-03T05:58:46.305Z,73.70
2018-10-03T05:59:18.917Z,73.40
2018-10-03T05:59:51.713Z,73.20
2018-10-03T06:00:24.406Z,73.50
2018-10-03T06:00:57.197Z,73.50
2018-10-03T06:01:29.924Z,72.80
2018-10-03T06:02:02.590Z,72.50
2018-10-03T06:02:35.293Z,72.50
2018-10-03T06:03:07.969Z,72.70
2018-10-03T06:03:40.618Z,72.70
2018-10-03T06:04:13.248Z,72.60
2018-10-03T06:04:46.050Z,73.00
2018-10-03T06:05:18.814Z,72.80
2018-10-03T06:05:51.458Z,72.90
2018-10-03T06:06:25.873Z,73.20
2018-10-03T06:07:03.859Z,72.70
2018-10-03T06:07:42.118Z,72.60
2018-10-03T06:08:20.256Z,72.70
2018-10-03T06:08:52.956Z,72.80
2018-10-03T06:09:25.621Z,72.80
2018-10-03T06:09:58.220Z,72.70
2018-10-03T06:10:30.935Z,72.80
2018-10-03T06:11:03.591Z,72.90
2018-10-03T06:11:36.284Z,73.40
2018-10-03T06:12:09.042Z,73.60
2018-10-03T06:12:41.640Z,73.50
2018-10-03T06:13:14.253Z,73.40
2018-10-03T06:13:47.052Z,73.40
2018-10-03T06:14:19.765Z,73.50
2018-10-03T06:14:52.446Z,73.70
2018-10-03T06:15:25.156Z,73.80
2018-10-03T06:15:57.996Z,73.80
2018-10-03T06:16:30.607Z,74.10
2018-10-03T06:17:03.220Z,74.30
2018-10-03T06:17:35.954Z,74.20
2018-10-03T06:18:08.596Z,75.10
2018-10-03T06:18:41.275Z,75.30
2018-10-03T06:19:13.913Z,75.60
2018-10-03T06:19:46.569Z,75.90
2018-10-03T06:20:19.195Z,76.10
2018-10-03T06:20:51.866Z,76.50
2018-10-03T06:21:24.533Z,76.80
2018-10-03T06:21:57.186Z,77.10
2018-10-03T06:22:29.816Z,77.20
2018-10-03T06:23:02.453Z,77.30
2018-10-03T06:23:35.086Z,77.50
2018-10-03T06:24:07.736Z,77.90
2018-10-03T06:24:40.370Z,77.70
2018-10-03T06:25:12.965Z,77.80
2018-10-03T06:25:45.610Z,77.90
2018-10-03T06:26:18.225Z,78.00
2018-10-03T06:26:50.857Z,78.30
2018-10-03T06:27:23.457Z,78.10
2018-10-03T06:27:56.119Z,78.00
2018-10-03T06:28:28.721Z,78.40
2018-10-03T06:29:01.410Z,78.40
2018-10-03T06:29:34.091Z,78.10
2018-10-03T06:30:06.825Z,77.90
2018-10-03T06:30:39.424Z,77.70
2018-10-03T06:31:12.049Z,77.80
2018-10-03T06:31:44.685Z,78.10
2018-10-03T06:32:17.323Z,78.20
2018-10-03T06:32:49.924Z,78.20
2018-10-03T06:33:22.548Z,78.10
2018-10-03T06:33:55.162Z,78.10
2018-10-03T06:34:27.773Z,78.50
2018-10-03T06:35:00.412Z,78.30
2018-10-03T06:35:33.211Z,78.40
2018-10-03T06:36:05.813Z,78.30
2018-10-03T06:36:38.409Z,78.20
2018-10-03T06:37:11.321Z,78.00
2018-10-03T06:37:44.126Z,78.00
2018-10-03T06:38:16.772Z,77.60
2018-10-03T06:38:49.380Z,77.70
2018-10-03T06:39:22.031Z,77.90
2018-10-03T06:39:54.638Z,78.00
2018-10-03T06:40:27.343Z,78.10
2018-10-03T06:40:59.998Z,78.30
2018-10-03T06:41:32.638Z,78.10
2018-10-03T06:42:05.307Z,78.00
2018-10-03T06:42:38.090Z,78.00
2018-10-03T06:43:10.770Z,78.10
2018-10-03T06:43:43.372Z,77.90
2018-10-03T06:44:16.017Z,77.80
2018-10-03T06:44:48.644Z,77.80
2018-10-03T06:45:21.332Z,77.60
2018-10-03T06:45:53.972Z,77.50
2018-10-03T06:46:26.596Z,77.30
2018-10-03T06:46:59.262Z,77.60
2018-10-03T06:47:31.881Z,77.60
2018-10-03T06:48:04.504Z,77.80
2018-10-03T06:48:37.178Z,77.80
2018-10-03T06:49:09.805Z,77.60
2018-10-03T06:49:42.450Z,77.80
2018-10-03T06:50:15.093Z,77.60
2018-10-03T06:50:47.840Z,77.40
2018-10-03T06:51:20.701Z,77.20
2018-10-03T06:51:53.348Z,77.20
2018-10-03T06:52:25.975Z,77.40
2018-10-03T06:52:58.583Z,77.50
2018-10-03T06:53:31.188Z,76.30
2018-10-03T06:54:03.910Z,76.30
2018-10-03T06:54:36.509Z,77.10
2018-10-03T06:55:09.137Z,75.90
2018-10-03T06:55:41.765Z,76.80
2018-10-03T06:56:14.429Z,75.70
2018-10-03T06:56:47.058Z,75.70
2018-10-03T06:57:19.706Z,75.80
2018-10-03T06:57:52.343Z,75.90
2018-10-03T06:58:24.945Z,76.60
2018-10-03T06:58:58.068Z,75.80
2018-10-03T06:59:30.819Z,76.20
2018-10-03T07:00:03.636Z,76.00
2018-10-03T07:00:36.520Z,76.30
2018-10-03T07:01:09.132Z,76.40
2018-10-03T07:01:41.866Z,76.30
2018-10-03T07:02:14.518Z,76.20
2018-10-03T07:02:47.155Z,75.70
2018-10-03T07:03:19.774Z,75.80
2018-10-03T07:03:52.425Z,75.30
2018-10-03T07:04:25.062Z,75.20
2018-10-03T07:04:57.764Z,74.80
2018-10-03T07:05:30.415Z,75.10
2018-10-03T07:06:03.037Z,75.00
2018-10-03T07:06:35.687Z,75.10
2018-10-03T07:07:08.341Z,75.30
2018-10-03T07:07:40.954Z,75.40
2018-10-03T07:08:13.569Z,75.00
2018-10-03T07:08:46.849Z,74.80
2018-10-03T07:09:19.478Z,74.80
2018-10-03T07:09:52.637Z,74.70
2018-10-03T07:10:25.284Z,74.90
2018-10-03T07:10:57.897Z,74.80
2018-10-03T07:11:30.548Z,74.90
2018-10-03T07:12:03.149Z,74.60
2018-10-03T07:12:35.805Z,74.40
2018-10-03T07:13:08.502Z,74.40
2018-10-03T07:13:41.094Z,74.50
2018-10-03T07:14:13.717Z,74.40
2018-10-03T07:14:46.362Z,74.60
2018-10-03T07:15:19.000Z,74.40
2018-10-03T07:15:51.686Z,74.40
2018-10-03T07:16:24.324Z,74.40
2018-10-03T07:16:56.933Z,74.80
2018-10-03T07:17:29.583Z,74.60
2018-10-03T07:18:04.427Z,74.50
2018-10-03T07:18:37.526Z,74.50
2018-10-03T07:19:17.087Z,74.50
2018-10-03T07:19:55.576Z,74.40
2018-10-03T07:20:34.097Z,74.60
2018-10-03T07:21:14.792Z,74.40
2018-10-03T07:21:54.771Z,74.50
2018-10-03T07:22:36.158Z,74.70
2018-10-03T07:23:19.681Z,74.80
2018-10-03T07:24:03.537Z,74.70
2018-10-03T07:24:46.210Z,74.70
2018-10-03T07:25:27.571Z,74.60
2018-10-03T07:26:11.112Z,74.80
2018-10-03T07:26:56.924Z,74.70
2018-10-03T07:27:39.624Z,74.80
2018-10-03T07:28:22.581Z,75.30
2018-10-03T07:29:04.542Z,75.30
2018-10-03T07:29:47.580Z,75.20
2018-10-03T07:30:31.699Z,75.30
2018-10-03T07:31:15.089Z,75.50
2018-10-03T07:32:01.052Z,75.60
2018-10-03T07:32:44.845Z,75.70
2018-10-03T07:33:28.829Z,75.90
2018-10-03T07:34:12.797Z,75.90
2018-10-03T07:34:56.387Z,76.30
2018-10-03T07:35:39.582Z,76.20
2018-10-03T07:36:20.771Z,76.30
2018-10-03T07:37:04.801Z,76.30
2018-10-03T07:37:47.243Z,75.40
2018-10-03T07:38:30.279Z,75.60
2018-10-03T07:39:15.660Z,75.30
2018-10-03T07:39:59.122Z,75.20
2018-10-03T07:40:41.654Z,75.30
2018-10-03T07:41:24.323Z,74.90
2018-10-03T07:42:06.481Z,74.80
2018-10-03T07:42:48.775Z,74.90
2018-10-03T07:43:31.056Z,74.30
2018-10-03T07:44:07.534Z,74.40
2018-10-03T07:44:50.332Z,73.70
2018-10-03T07:45:32.900Z,74.10
2018-10-03T07:46:15.438Z,74.10
2018-10-03T07:46:58.068Z,74.50
2018-10-03T07:47:38.784Z,73.40
2018-10-03T07:48:21.068Z,73.00
2018-10-03T07:49:03.373Z,73.10
2018-10-03T07:49:44.574Z,72.80
2018-10-03T07:50:25.834Z,73.10
2018-10-03T07:51:08.640Z,74.10
2018-10-03T07:51:50.904Z,73.30
2018-10-03T07:53:30.048Z,73.80
2018-10-03T07:54:09.390Z,74.40
2018-10-03T07:54:52.467Z,73.50
2018-10-03T07:55:34.942Z,74.60
2018-10-03T07:56:16.566Z,75.40
2018-10-03T07:56:58.220Z,73.50
2018-10-03T07:57:39.807Z,73.10
2018-10-03T07:58:21.078Z,72.80
2018-10-03T07:59:00.787Z,71.80
2018-10-03T07:59:44.041Z,71.50
2018-10-03T08:00:32.672Z,71.80
2018-10-03T08:01:15.586Z,72.40
2018-10-03T08:01:58.147Z,72.70
2018-10-03T08:02:41.091Z,72.40
2018-10-03T08:03:21.054Z,72.20
2018-10-03T08:04:04.073Z,71.70
2018-10-03T08:04:44.658Z,71.80
2018-10-03T08:05:28.049Z,70.60
2018-10-03T08:06:10.779Z,70.40
2018-10-03T08:07:53.005Z,70.10
2018-10-03T08:08:35.499Z,71.00
2018-10-03T08:09:19.408Z,71.90
2018-10-03T08:10:01.374Z,72.60
2018-10-03T08:10:44.221Z,71.50
2018-10-03T08:11:25.743Z,70.80
2018-10-03T08:12:08.255Z,70.80
2018-10-03T08:12:51.124Z,71.20
2018-10-03T08:13:33.410Z,71.80
2018-10-03T08:14:15.372Z,72.10
2018-10-03T08:20:14.258Z,71.90
2018-10-03T08:20:53.667Z,71.20
2018-10-03T08:21:34.731Z,71.20
2018-10-03T08:22:14.866Z,70.60
2018-10-03T08:22:52.466Z,70.50
2018-10-03T08:23:33.553Z,70.10
2018-10-03T08:24:14.936Z,69.90
2018-10-03T08:24:55.729Z,70.10
2018-10-03T08:25:36.111Z,70.00
2018-10-03T08:26:14.885Z,70.30
2018-10-03T08:26:54.141Z,70.20
2018-10-03T08:27:32.304Z,70.20
2018-10-03T08:28:10.458Z,70.00
2018-10-03T08:28:50.422Z,70.20
2018-10-03T08:29:31.131Z,70.50
2018-10-03T08:30:12.028Z,70.60
2018-10-03T08:30:49.614Z,70.60
2018-10-03T08:31:28.806Z,70.70
2018-10-03T08:32:08.998Z,70.30
2018-10-03T08:32:48.708Z,71.30
2018-10-03T08:33:28.942Z,70.70
2018-10-03T08:34:05.580Z,70.70
2018-10-03T08:34:45.282Z,71.10
2018-10-03T08:35:25.643Z,71.10
2018-10-03T08:36:07.237Z,70.70
2018-10-03T08:36:45.964Z,70.20
2018-10-03T08:37:24.761Z,70.50
2018-10-03T08:38:04.775Z,70.30
2018-10-03T08:38:44.430Z,69.80
2018-10-03T08:39:23.876Z,69.40
2018-10-03T08:39:58.842Z,69.50
2018-10-03T08:40:39.032Z,69.90
2018-10-03T08:41:17.470Z,70.10
2018-10-03T08:41:57.890Z,69.70
2018-10-03T08:42:38.268Z,68.80
2018-10-03T08:43:16.332Z,69.20
2018-10-03T08:43:55.417Z,67.80
2018-10-03T08:44:29.584Z,68.10
2018-10-03T08:45:09.225Z,68.80
2018-10-03T08:45:43.382Z,69.00
2018-10-03T08:46:21.724Z,68.90
2018-10-03T08:46:59.221Z,68.90
2018-10-03T08:47:37.431Z,69.00
2018-10-03T08:48:14.889Z,68.90
2018-10-03T08:48:52.795Z,68.60
2018-10-03T08:49:34.154Z,68.40
2018-10-03T08:50:14.385Z,68.20
2018-10-03T08:50:54.038Z,67.80
2018-10-03T08:51:30.192Z,68.10
2018-10-03T08:52:09.897Z,67.80
2018-10-03T08:52:50.589Z,68.00
2018-10-03T08:53:29.045Z,67.80
2018-10-03T08:54:08.635Z,68.00
2018-10-03T08:54:48.532Z,68.00
2018-10-03T08:55:28.394Z,67.80
2018-10-03T08:56:08.028Z,68.90
2018-10-03T08:56:46.978Z,68.60
2018-10-03T08:57:19.772Z,68.70
2018-10-03T08:58:00.014Z,68.50
2018-10-03T08:58:35.706Z,67.90
2018-10-03T08:59:16.159Z,67.60
2018-10-03T08:59:55.436Z,67.40
2018-10-03T09:00:34.066Z,67.10
2018-10-03T09:01:14.051Z,67.10
2018-10-03T09:01:55.298Z,67.00
2018-10-03T09:02:30.614Z,67.10
2018-10-03T09:03:03.332Z,67.50
2018-10-03T09:03:41.335Z,67.70
2018-10-03T09:04:16.280Z,68.10
2018-10-03T09:04:54.829Z,68.20
2018-10-03T09:05:29.544Z,68.20
2018-10-03T09:06:03.026Z,67.70
2018-10-03T09:06:36.959Z,67.60
2018-10-03T09:07:10.548Z,67.50
2018-10-03T09:07:45.629Z,67.70
2018-10-03T09:08:20.022Z,67.90
2018-10-03T09:08:54.854Z,67.70
2018-10-03T09:09:36.719Z,67.30
2018-10-03T09:10:12.515Z,67.10
2018-10-03T09:10:47.975Z,67.70
2018-10-03T09:11:22.263Z,68.20
2018-10-03T09:11:58.769Z,68.30
2018-10-03T09:12:33.437Z,68.00
2018-10-03T09:13:08.865Z,67.60
2018-10-03T09:13:46.380Z,67.20
2018-10-03T09:14:20.321Z,67.30
2018-10-03T09:14:58.602Z,67.50
2018-10-03T09:15:38.691Z,67.20
2018-10-03T09:16:20.869Z,66.90
2018-10-03T09:17:01.605Z,67.00
2018-10-03T09:17:42.969Z,66.90
2018-10-03T09:18:22.256Z,67.10
2018-10-03T09:19:00.779Z,66.80
2018-10-03T09:19:35.980Z,66.60
2018-10-03T09:20:11.426Z,66.20
2018-10-03T09:20:50.017Z,66.30
2018-10-03T09:21:26.463Z,66.00
2018-10-03T09:22:02.781Z,66.50
2018-10-03T09:22:40.100Z,66.40
2018-10-03T09:23:17.027Z,66.50
2018-10-03T09:23:54.705Z,66.80
2018-10-03T09:24:31.698Z,66.30
2018-10-03T09:25:13.536Z,66.50
2018-10-03T09:25:52.730Z,66.50
2018-10-03T09:26:30.146Z,66.80
2018-10-03T09:27:08.935Z,67.10
2018-10-03T09:27:46.597Z,67.40
2018-10-03T09:28:29.880Z,67.60
2018-10-03T09:29:11.805Z,67.90
2018-10-03T09:29:53.122Z,68.60
2018-10-03T09:30:35.209Z,69.20
2018-10-03T09:31:15.961Z,69.10
2018-10-03T09:31:49.860Z,68.90
2018-10-03T09:32:26.221Z,68.80
2018-10-03T09:33:04.336Z,69.50
2018-10-03T09:33:43.604Z,69.30
2018-10-03T09:34:18.803Z,69.60
2018-10-03T09:35:00.885Z,69.70
2018-10-03T09:35:40.126Z,69.90
2018-10-03T09:36:20.340Z,69.40
2018-10-03T09:37:00.233Z,69.40
2018-10-03T09:37:33.072Z,68.80
2018-10-03T09:38:14.573Z,68.40
2018-10-03T09:38:54.840Z,68.20
2018-10-03T09:39:34.842Z,68.00
2018-10-03T09:40:12.360Z,67.30
2018-10-03T09:40:51.606Z,67.90
2018-10-03T09:41:30.640Z,68.50
2018-10-03T09:42:09.483Z,68.50
2018-10-03T09:42:48.010Z,69.50
2018-10-03T09:43:20.849Z,68.70
2018-10-03T09:43:53.496Z,68.20
2018-10-03T09:44:26.137Z,68.20
2018-10-03T09:44:58.751Z,66.80
2018-10-03T09:45:31.380Z,66.90
2018-10-03T09:46:04.002Z,67.00
2018-10-03T09:46:36.689Z,66.90
2018-10-03T09:47:09.325Z,67.50
2018-10-03T09:47:41.960Z,68.00
2018-10-03T09:48:14.548Z,68.40
2018-10-03T09:48:47.193Z,68.80
2018-10-03T09:49:19.845Z,68.80
2018-10-03T09:49:52.455Z,67.50
2018-10-03T09:50:25.076Z,66.70
2018-10-03T09:50:57.695Z,66.70
2018-10-03T09:51:30.325Z,66.60
2018-10-03T09:52:03.003Z,66.40
2018-10-03T09:52:35.617Z,66.00
2018-10-03T09:53:08.227Z,65.80
2018-10-03T09:53:40.832Z,66.10
2018-10-03T09:54:13.424Z,66.20
2018-10-03T09:54:46.110Z,66.10
2018-10-03T09:55:18.753Z,66.30
2018-10-03T09:55:51.376Z,66.20
2018-10-03T09:56:23.987Z,66.10
2018-10-03T09:56:56.633Z,66.40
2018-10-03T09:57:29.313Z,66.60
2018-10-03T09:58:01.951Z,66.20
2018-10-03T09:58:34.571Z,65.80
2018-10-03T09:59:07.196Z,65.60
2018-10-03T09:59:39.816Z,65.90
2018-10-03T10:00:12.569Z,66.40
2018-10-03T10:00:50.856Z,66.70
2018-10-03T10:01:29.113Z,66.80
2018-10-03T10:02:01.789Z,66.70
2018-10-03T10:02:34.529Z,66.80
2018-10-03T10:03:07.149Z,66.60
2018-10-03T10:03:39.772Z,66.60
2018-10-03T10:04:12.424Z,66.50
2018-10-03T10:04:45.024Z,66.80
2018-10-03T10:05:17.661Z,66.10
2018-10-03T10:05:50.289Z,65.90
2018-10-03T10:06:22.916Z,66.00
2018-10-03T10:06:55.565Z,66.00
2018-10-03T10:07:28.213Z,65.90
2018-10-03T10:08:00.808Z,65.90
2018-10-03T10:08:33.545Z,66.30
2018-10-03T10:09:08.048Z,66.50
2018-10-03T10:09:40.694Z,66.40
2018-10-03T10:10:13.342Z,66.50
2018-10-03T10:10:45.964Z,66.70
2018-10-03T10:11:19.109Z,66.80
2018-10-03T10:11:51.670Z,66.30
2018-10-03T10:12:24.281Z,65.80
2018-10-03T10:12:56.916Z,65.40
2018-10-03T10:13:29.508Z,65.40
2018-10-03T10:14:02.169Z,65.50
2018-10-03T10:14:34.762Z,65.90
2018-10-03T10:15:07.420Z,66.20
2018-10-03T10:15:40.047Z,66.30
2018-10-03T10:16:12.705Z,66.30
2018-10-03T10:16:45.293Z,66.30
2018-10-03T10:17:17.892Z,66.50
2018-10-03T10:17:50.508Z,67.10
2018-10-03T10:18:23.141Z,67.90
2018-10-03T10:18:55.764Z,68.10
2018-10-03T10:19:28.417Z,67.80
2018-10-03T10:20:01.056Z,67.70
2018-10-03T10:20:33.678Z,68.00
2018-10-03T10:21:06.289Z,68.30
2018-10-03T10:21:38.938Z,68.80
2018-10-03T10:22:11.531Z,69.50
2018-10-03T10:22:44.140Z,70.00
2018-10-03T10:23:16.768Z,70.30
2018-10-03T10:23:49.376Z,70.80
2018-10-03T10:24:22.013Z,71.30
2018-10-03T10:24:54.625Z,71.70
2018-10-03T10:25:27.261Z,72.30
2018-10-03T10:25:59.873Z,72.70
2018-10-03T10:26:32.465Z,73.10
2018-10-03T10:27:05.220Z,73.70
2018-10-03T10:27:37.865Z,74.10
2018-10-03T10:28:10.585Z,74.30
2018-10-03T10:28:43.216Z,74.70
2018-10-03T10:29:15.848Z,75.20
2018-10-03T10:29:48.494Z,76.20
2018-10-03T10:30:21.096Z,75.60
2018-10-03T10:30:53.703Z,75.90
2018-10-03T10:31:26.327Z,76.20
2018-10-03T10:31:59.051Z,76.50
2018-10-03T10:32:31.726Z,76.80
2018-10-03T10:33:04.314Z,77.20
2018-10-03T10:33:36.902Z,76.40
2018-10-03T10:34:09.509Z,76.90
2018-10-03T10:34:42.127Z,77.00
2018-10-03T10:35:14.745Z,76.80
2018-10-03T10:35:47.337Z,76.60
2018-10-03T10:36:19.978Z,76.80
2018-10-03T10:36:52.636Z,77.10
2018-10-03T10:37:25.342Z,77.70
2018-10-03T10:37:58.044Z,77.90
2018-10-03T10:38:30.701Z,78.80
2018-10-03T10:39:05.156Z,79.40
2018-10-03T10:39:37.848Z,79.00
2018-10-03T10:40:10.603Z,76.90
2018-10-03T10:40:43.421Z,74.20
2018-10-03T10:41:15.938Z,73.10
2018-10-03T10:41:48.576Z,73.20
2018-10-03T10:42:21.220Z,73.40
2018-10-03T10:42:53.824Z,72.90
2018-10-03T10:43:26.603Z,74.40
2018-10-03T10:43:59.239Z,75.10
2018-10-03T10:44:31.873Z,75.80
2018-10-03T10:45:04.847Z,76.20
2018-10-03T10:45:37.478Z,76.10
2018-10-03T10:46:10.119Z,76.20
2018-10-03T10:46:42.862Z,76.70
2018-10-03T10:47:15.516Z,77.10
2018-10-03T10:47:48.168Z,76.60
2018-10-03T10:48:20.764Z,76.40
2018-10-03T10:48:53.413Z,76.80
2018-10-03T10:49:27.253Z,77.20
2018-10-03T10:50:00.850Z,76.80
2018-10-03T10:50:33.453Z,76.70
2018-10-03T10:51:06.112Z,76.40
2018-10-03T10:51:38.772Z,75.80
2018-10-03T10:52:11.359Z,75.70
2018-10-03T10:52:43.963Z,75.60
2018-10-03T10:53:16.624Z,75.70
2018-10-03T10:53:49.267Z,76.10
2018-10-03T10:54:22.098Z,76.20
2018-10-03T10:54:54.866Z,76.50
2018-10-03T10:55:27.576Z,76.60
2018-10-03T10:56:00.293Z,76.60
2018-10-03T10:56:33.068Z,77.20
2018-10-03T10:57:06.590Z,77.50
2018-10-03T10:57:39.355Z,77.60
2018-10-03T10:58:12.037Z,77.80
2018-10-03T10:58:44.724Z,77.90
2018-10-03T10:59:17.396Z,78.20
2018-10-03T10:59:50.212Z,78.40
2018-10-03T11:00:22.877Z,78.30
2018-10-03T11:00:55.580Z,78.60
2018-10-03T11:01:28.317Z,78.60
2018-10-03T11:02:01.097Z,78.80
2018-10-03T11:02:33.821Z,79.30
2018-10-03T11:03:07.662Z,79.50
2018-10-03T11:03:40.348Z,79.50
2018-10-03T11:04:13.006Z,79.20
2018-10-03T11:04:45.650Z,79.10
2018-10-03T11:05:18.399Z,79.20
2018-10-03T11:05:51.116Z,79.60
2018-10-03T11:06:24.020Z,79.70
2018-10-03T11:06:56.799Z,79.70
2018-10-03T11:07:29.612Z,79.90
2018-10-03T11:08:02.787Z,80.30
2018-10-03T11:08:36.376Z,80.70
2018-10-03T11:09:09.140Z,80.90
2018-10-03T11:09:41.890Z,80.90
2018-10-03T11:10:25.541Z,81.00
2018-10-03T11:10:58.390Z,80.90
2018-10-03T11:11:31.297Z,80.80
2018-10-03T11:12:03.985Z,81.20
2018-10-03T11:12:38.753Z,81.20
2018-10-03T11:13:13.318Z,81.40
2018-10-03T11:13:45.952Z,81.80
2018-10-03T11:14:18.824Z,82.00
2018-10-03T11:14:51.773Z,81.90
2018-10-03T11:15:27.123Z,82.00
2018-10-03T11:15:59.830Z,82.00
2018-10-03T11:16:32.449Z,82.10
2018-10-03T11:17:05.371Z,82.30
2018-10-03T11:17:38.105Z,82.40
2018-10-03T11:18:10.756Z,81.80
2018-10-03T11:18:43.493Z,81.70
2018-10-03T11:19:16.136Z,80.90
2018-10-03T11:19:48.828Z,81.00
2018-10-03T11:20:21.565Z,80.90
2018-10-03T11:20:54.297Z,80.50
2018-10-03T11:21:26.999Z,80.30
2018-10-03T11:21:59.645Z,80.90
2018-10-03T11:22:32.325Z,81.00
2018-10-03T11:23:05.025Z,80.90
2018-10-03T11:23:37.767Z,81.40
2018-10-03T11:24:10.562Z,81.20
2018-10-03T11:24:43.474Z,81.20
2018-10-03T11:25:15.852Z,80.80
2018-10-03T11:25:48.480Z,80.60
2018-10-03T11:26:21.199Z,81.00
2018-10-03T11:26:54.184Z,80.50
2018-10-03T11:27:26.881Z,80.40
2018-10-03T11:27:59.646Z,80.10
2018-10-03T11:28:32.325Z,80.60
2018-10-03T11:29:05.981Z,81.40
2018-10-03T11:29:38.693Z,81.80
2018-10-03T11:30:11.417Z,81.90
2018-10-03T11:30:44.109Z,81.30
2018-10-03T11:31:16.772Z,80.90
2018-10-03T11:31:49.473Z,80.90
2018-10-03T11:32:22.201Z,81.20
2018-10-03T11:32:55.065Z,80.70
2018-10-03T11:33:28.285Z,80.90
2018-10-03T11:34:00.907Z,80.90